sensor_id;sensor_type;location;lat;lon;timestamp;P1;durP1;ratioP1;P2;durP2;ratioP2
17953;SDS011;9102;53.548;9.926;2022-11-18T00:00:48;38.90;;;18.00;;
17953;SDS011;9102;53.548;9.926;2022-11-18T00:03:16;38.53;;;18.00;;
17953;SDS011;9102;53.548;9.926;2022-11-18T00:05:45;40.33;;;18.73;;
17953;SDS011;9102;53.548;9.926;2022-11-18T00:08:18;38.03;;;17.75;;
17953;SDS011;9102;53.548;9.926;2022-11-18T00:10:46;41.00;;;18.02;;
17953;SDS011;9102;53.548;9.926;2022-11-18T00:13:13;42.75;;;19.40;;
17953;SDS011;9102;53.548;9.926;2022-11-18T00:16:01;38.83;;;18.23;;
17953;SDS011;9102;53.548;9.926;2022-11-18T00:18:28;41.67;;;19.42;;
17953;SDS011;9102;53.548;9.926;2022-11-18T00:23:26;41.65;;;18.42;;
17953;SDS011;9102;53.548;9.926;2022-11-18T00:25:54;39.83;;;18.13;;
17953;SDS011;9102;53.548;9.926;2022-11-18T00:28:21;39.60;;;18.83;;
17953;SDS011;9102;53.548;9.926;2022-11-18T00:30:47;46.78;;;19.83;;
17953;SDS011;9102;53.548;9.926;2022-11-18T00:33:15;42.85;;;19.25;;
17953;SDS011;9102;53.548;9.926;2022-11-18T00:35:41;43.33;;;19.48;;
17953;SDS011;9102;53.548;9.926;2022-11-18T00:38:08;41.15;;;19.13;;
17953;SDS011;9102;53.548;9.926;2022-11-18T00:40:35;42.17;;;18.67;;
17953;SDS011;9102;53.548;9.926;2022-11-18T00:43:03;43.08;;;19.90;;
17953;SDS011;9102;53.548;9.926;2022-11-18T00:45:29;42.97;;;19.52;;
17953;SDS011;9102;53.548;9.926;2022-11-18T00:47:56;39.97;;;19.15;;
17953;SDS011;9102;53.548;9.926;2022-11-18T00:50:22;42.70;;;19.60;;
17953;SDS011;9102;53.548;9.926;2022-11-18T00:52:50;42.10;;;19.00;;
17953;SDS011;9102;53.548;9.926;2022-11-18T00:55:16;41.85;;;19.75;;
17953;SDS011;9102;53.548;9.926;2022-11-18T00:57:43;41.60;;;19.52;;
17953;SDS011;9102;53.548;9.926;2022-11-18T01:00:12;42.05;;;19.20;;
17953;SDS011;9102;53.548;9.926;2022-11-18T01:02:39;37.05;;;18.02;;
17953;SDS011;9102;53.548;9.926;2022-11-18T01:08:27;44.40;;;19.50;;
17953;SDS011;9102;53.548;9.926;2022-11-18T01:10:54;40.25;;;18.65;;
17953;SDS011;9102;53.548;9.926;2022-11-18T01:13:41;63.25;;;26.58;;
17953;SDS011;9102;53.548;9.926;2022-11-18T01:16:08;50.97;;;21.73;;
17953;SDS011;9102;53.548;9.926;2022-11-18T01:18:35;53.95;;;23.92;;
17953;SDS011;9102;53.548;9.926;2022-11-18T01:21:02;48.78;;;22.50;;
17953;SDS011;9102;53.548;9.926;2022-11-18T01:23:30;52.60;;;22.30;;
17953;SDS011;9102;53.548;9.926;2022-11-18T01:25:57;52.75;;;23.55;;
17953;SDS011;9102;53.548;9.926;2022-11-18T01:28:29;77.28;;;28.75;;
17953;SDS011;9102;53.548;9.926;2022-11-18T01:31:01;47.08;;;21.17;;
17953;SDS011;9102;53.548;9.926;2022-11-18T01:33:30;43.53;;;20.10;;
17953;SDS011;9102;53.548;9.926;2022-11-18T01:35:57;46.58;;;20.13;;
17953;SDS011;9102;53.548;9.926;2022-11-18T01:38:24;44.95;;;20.98;;
17953;SDS011;9102;53.548;9.926;2022-11-18T01:40:51;44.30;;;20.90;;
17953;SDS011;9102;53.548;9.926;2022-11-18T01:43:19;44.43;;;20.53;;
17953;SDS011;9102;53.548;9.926;2022-11-18T01:45:47;46.00;;;20.23;;
17953;SDS011;9102;53.548;9.926;2022-11-18T01:48:15;48.35;;;20.95;;
17953;SDS011;9102;53.548;9.926;2022-11-18T01:50:48;46.63;;;20.60;;
17953;SDS011;9102;53.548;9.926;2022-11-18T01:53:19;50.42;;;21.33;;
17953;SDS011;9102;53.548;9.926;2022-11-18T01:55:49;49.03;;;21.17;;
17953;SDS011;9102;53.548;9.926;2022-11-18T01:58:20;49.60;;;21.55;;
17953;SDS011;9102;53.548;9.926;2022-11-18T02:00:51;51.30;;;22.58;;
17953;SDS011;9102;53.548;9.926;2022-11-18T02:03:18;48.55;;;20.92;;
17953;SDS011;9102;53.548;9.926;2022-11-18T02:05:48;49.58;;;21.75;;
17953;SDS011;9102;53.548;9.926;2022-11-18T02:08:17;50.38;;;22.95;;
17953;SDS011;9102;53.548;9.926;2022-11-18T02:10:44;51.55;;;22.83;;
17953;SDS011;9102;53.548;9.926;2022-11-18T02:13:11;47.88;;;21.40;;
17953;SDS011;9102;53.548;9.926;2022-11-18T02:15:42;51.25;;;23.10;;
17953;SDS011;9102;53.548;9.926;2022-11-18T02:18:14;56.22;;;24.17;;
17953;SDS011;9102;53.548;9.926;2022-11-18T02:20:51;53.00;;;23.20;;
17953;SDS011;9102;53.548;9.926;2022-11-18T02:23:42;54.33;;;23.52;;
17953;SDS011;9102;53.548;9.926;2022-11-18T02:26:30;55.80;;;24.05;;
17953;SDS011;9102;53.548;9.926;2022-11-18T02:29:21;54.65;;;24.38;;
17953;SDS011;9102;53.548;9.926;2022-11-18T02:31:53;58.83;;;25.70;;
17953;SDS011;9102;53.548;9.926;2022-11-18T02:34:26;57.33;;;26.30;;
17953;SDS011;9102;53.548;9.926;2022-11-18T02:37:02;61.08;;;25.30;;
17953;SDS011;9102;53.548;9.926;2022-11-18T02:39:36;57.38;;;25.63;;
17953;SDS011;9102;53.548;9.926;2022-11-18T02:42:09;54.55;;;24.90;;
17953;SDS011;9102;53.548;9.926;2022-11-18T02:44:41;56.75;;;25.05;;
17953;SDS011;9102;53.548;9.926;2022-11-18T02:47:11;60.80;;;25.45;;
17953;SDS011;9102;53.548;9.926;2022-11-18T02:49:41;57.08;;;24.58;;
17953;SDS011;9102;53.548;9.926;2022-11-18T02:52:11;60.23;;;26.07;;
17953;SDS011;9102;53.548;9.926;2022-11-18T02:54:40;60.25;;;25.50;;
17953;SDS011;9102;53.548;9.926;2022-11-18T02:57:11;56.33;;;24.45;;
17953;SDS011;9102;53.548;9.926;2022-11-18T02:59:38;61.05;;;25.77;;
17953;SDS011;9102;53.548;9.926;2022-11-18T03:02:07;55.45;;;24.77;;
17953;SDS011;9102;53.548;9.926;2022-11-18T03:04:39;53.10;;;25.00;;
17953;SDS011;9102;53.548;9.926;2022-11-18T03:07:08;55.53;;;25.38;;
17953;SDS011;9102;53.548;9.926;2022-11-18T03:09:40;56.33;;;25.13;;
17953;SDS011;9102;53.548;9.926;2022-11-18T03:12:10;51.92;;;24.95;;
17953;SDS011;9102;53.548;9.926;2022-11-18T03:14:45;53.80;;;24.98;;
17953;SDS011;9102;53.548;9.926;2022-11-18T03:17:18;53.75;;;25.65;;
17953;SDS011;9102;53.548;9.926;2022-11-18T03:20:04;56.63;;;26.05;;
17953;SDS011;9102;53.548;9.926;2022-11-18T03:22:38;52.50;;;25.02;;
17953;SDS011;9102;53.548;9.926;2022-11-18T03:25:09;53.97;;;25.27;;
17953;SDS011;9102;53.548;9.926;2022-11-18T03:27:43;55.38;;;26.90;;
17953;SDS011;9102;53.548;9.926;2022-11-18T03:30:18;54.38;;;24.92;;
17953;SDS011;9102;53.548;9.926;2022-11-18T03:32:49;53.38;;;25.10;;
17953;SDS011;9102;53.548;9.926;2022-11-18T03:35:20;54.25;;;25.55;;
17953;SDS011;9102;53.548;9.926;2022-11-18T03:37:49;53.60;;;25.50;;
17953;SDS011;9102;53.548;9.926;2022-11-18T03:40:22;50.15;;;24.25;;
17953;SDS011;9102;53.548;9.926;2022-11-18T03:42:52;56.67;;;26.17;;
17953;SDS011;9102;53.548;9.926;2022-11-18T03:45:27;55.08;;;25.58;;
17953;SDS011;9102;53.548;9.926;2022-11-18T03:47:57;48.90;;;24.10;;
17953;SDS011;9102;53.548;9.926;2022-11-18T03:50:30;50.22;;;24.42;;
17953;SDS011;9102;53.548;9.926;2022-11-18T03:53:01;53.50;;;25.92;;
17953;SDS011;9102;53.548;9.926;2022-11-18T03:55:30;43.10;;;22.15;;
17953;SDS011;9102;53.548;9.926;2022-11-18T03:58:02;50.20;;;23.85;;
17953;SDS011;9102;53.548;9.926;2022-11-18T04:00:35;45.15;;;22.90;;
17953;SDS011;9102;53.548;9.926;2022-11-18T04:03:06;45.95;;;22.63;;
17953;SDS011;9102;53.548;9.926;2022-11-18T04:05:35;46.40;;;23.05;;
17953;SDS011;9102;53.548;9.926;2022-11-18T04:08:06;44.05;;;21.70;;
17953;SDS011;9102;53.548;9.926;2022-11-18T04:10:38;44.20;;;21.98;;
17953;SDS011;9102;53.548;9.926;2022-11-18T04:13:09;40.55;;;21.30;;
17953;SDS011;9102;53.548;9.926;2022-11-18T04:15:42;43.30;;;21.90;;
17953;SDS011;9102;53.548;9.926;2022-11-18T04:18:09;46.73;;;22.53;;
17953;SDS011;9102;53.548;9.926;2022-11-18T04:20:36;48.28;;;24.10;;
17953;SDS011;9102;53.548;9.926;2022-11-18T04:23:03;47.42;;;22.42;;
17953;SDS011;9102;53.548;9.926;2022-11-18T04:25:31;49.85;;;23.15;;
17953;SDS011;9102;53.548;9.926;2022-11-18T04:27:57;41.80;;;22.13;;
17953;SDS011;9102;53.548;9.926;2022-11-18T04:30:24;46.53;;;23.25;;
17953;SDS011;9102;53.548;9.926;2022-11-18T04:32:53;47.63;;;23.45;;
17953;SDS011;9102;53.548;9.926;2022-11-18T04:35:20;45.65;;;23.33;;
17953;SDS011;9102;53.548;9.926;2022-11-18T04:37:46;47.42;;;23.30;;
17953;SDS011;9102;53.548;9.926;2022-11-18T04:40:13;49.58;;;23.33;;
17953;SDS011;9102;53.548;9.926;2022-11-18T04:42:40;49.17;;;23.10;;
17953;SDS011;9102;53.548;9.926;2022-11-18T04:45:08;46.95;;;23.38;;
17953;SDS011;9102;53.548;9.926;2022-11-18T04:47:35;47.47;;;23.55;;
17953;SDS011;9102;53.548;9.926;2022-11-18T04:50:04;44.78;;;23.25;;
17953;SDS011;9102;53.548;9.926;2022-11-18T04:52:31;45.47;;;23.02;;
17953;SDS011;9102;53.548;9.926;2022-11-18T04:54:58;46.35;;;24.52;;
17953;SDS011;9102;53.548;9.926;2022-11-18T04:57:24;46.97;;;24.05;;
17953;SDS011;9102;53.548;9.926;2022-11-18T04:59:51;48.22;;;23.67;;
17953;SDS011;9102;53.548;9.926;2022-11-18T05:02:18;53.92;;;24.52;;
17953;SDS011;9102;53.548;9.926;2022-11-18T05:04:45;52.75;;;24.92;;
17953;SDS011;9102;53.548;9.926;2022-11-18T05:07:14;49.03;;;25.17;;
17953;SDS011;9102;53.548;9.926;2022-11-18T05:09:41;50.67;;;24.63;;
17953;SDS011;9102;53.548;9.926;2022-11-18T05:12:09;48.70;;;24.17;;
17953;SDS011;9102;53.548;9.926;2022-11-18T05:14:55;52.65;;;24.42;;
17953;SDS011;9102;53.548;9.926;2022-11-18T05:17:22;56.00;;;25.67;;
17953;SDS011;9102;53.548;9.926;2022-11-18T05:19:49;51.30;;;25.60;;
17953;SDS011;9102;53.548;9.926;2022-11-18T05:22:17;50.00;;;24.75;;
17953;SDS011;9102;53.548;9.926;2022-11-18T05:24:44;50.47;;;24.85;;
17953;SDS011;9102;53.548;9.926;2022-11-18T05:27:11;52.75;;;25.42;;
17953;SDS011;9102;53.548;9.926;2022-11-18T05:29:38;55.80;;;27.08;;
17953;SDS011;9102;53.548;9.926;2022-11-18T05:32:05;52.22;;;26.83;;
17953;SDS011;9102;53.548;9.926;2022-11-18T05:34:31;56.92;;;27.40;;
17953;SDS011;9102;53.548;9.926;2022-11-18T05:36:58;55.57;;;25.63;;
17953;SDS011;9102;53.548;9.926;2022-11-18T05:39:27;57.15;;;26.85;;
17953;SDS011;9102;53.548;9.926;2022-11-18T05:41:53;52.90;;;26.50;;
17953;SDS011;9102;53.548;9.926;2022-11-18T05:44:38;56.60;;;27.58;;
17953;SDS011;9102;53.548;9.926;2022-11-18T05:47:05;53.92;;;26.25;;
17953;SDS011;9102;53.548;9.926;2022-11-18T05:49:31;50.90;;;26.92;;
17953;SDS011;9102;53.548;9.926;2022-11-18T05:51:58;52.58;;;27.73;;
17953;SDS011;9102;53.548;9.926;2022-11-18T05:54:26;52.17;;;26.80;;
17953;SDS011;9102;53.548;9.926;2022-11-18T05:56:54;52.95;;;27.17;;
17953;SDS011;9102;53.548;9.926;2022-11-18T05:59:20;53.78;;;25.90;;
17953;SDS011;9102;53.548;9.926;2022-11-18T06:01:48;54.97;;;26.00;;
17953;SDS011;9102;53.548;9.926;2022-11-18T06:04:18;55.60;;;27.92;;
17953;SDS011;9102;53.548;9.926;2022-11-18T06:06:48;59.63;;;28.58;;
17953;SDS011;9102;53.548;9.926;2022-11-18T06:09:18;60.85;;;28.05;;
17953;SDS011;9102;53.548;9.926;2022-11-18T06:11:50;54.05;;;27.48;;
17953;SDS011;9102;53.548;9.926;2022-11-18T06:14:23;56.38;;;27.55;;
17953;SDS011;9102;53.548;9.926;2022-11-18T06:16:54;57.28;;;27.45;;
17953;SDS011;9102;53.548;9.926;2022-11-18T06:19:23;53.20;;;27.45;;
17953;SDS011;9102;53.548;9.926;2022-11-18T06:21:50;56.20;;;27.70;;
17953;SDS011;9102;53.548;9.926;2022-11-18T06:24:18;57.92;;;27.35;;
17953;SDS011;9102;53.548;9.926;2022-11-18T06:26:45;57.83;;;28.98;;
17953;SDS011;9102;53.548;9.926;2022-11-18T06:29:14;57.92;;;28.13;;
17953;SDS011;9102;53.548;9.926;2022-11-18T06:31:43;59.78;;;28.02;;
17953;SDS011;9102;53.548;9.926;2022-11-18T06:34:10;55.95;;;27.08;;
17953;SDS011;9102;53.548;9.926;2022-11-18T06:36:37;55.72;;;27.85;;
17953;SDS011;9102;53.548;9.926;2022-11-18T06:39:04;58.60;;;28.15;;
17953;SDS011;9102;53.548;9.926;2022-11-18T06:41:31;56.63;;;27.40;;
17953;SDS011;9102;53.548;9.926;2022-11-18T06:43:58;55.70;;;26.80;;
17953;SDS011;9102;53.548;9.926;2022-11-18T06:46:26;56.05;;;27.95;;
17953;SDS011;9102;53.548;9.926;2022-11-18T06:49:10;55.72;;;27.02;;
17953;SDS011;9102;53.548;9.926;2022-11-18T06:51:37;54.85;;;28.30;;
17953;SDS011;9102;53.548;9.926;2022-11-18T06:54:04;57.83;;;27.98;;
17953;SDS011;9102;53.548;9.926;2022-11-18T06:56:31;57.93;;;28.17;;
17953;SDS011;9102;53.548;9.926;2022-11-18T06:58:59;62.33;;;29.13;;
17953;SDS011;9102;53.548;9.926;2022-11-18T07:01:27;62.33;;;28.40;;
17953;SDS011;9102;53.548;9.926;2022-11-18T07:03:56;60.10;;;27.90;;
17953;SDS011;9102;53.548;9.926;2022-11-18T07:06:24;58.63;;;28.57;;
17953;SDS011;9102;53.548;9.926;2022-11-18T07:08:52;58.67;;;28.87;;
17953;SDS011;9102;53.548;9.926;2022-11-18T07:11:20;60.92;;;28.58;;
17953;SDS011;9102;53.548;9.926;2022-11-18T07:13:48;56.63;;;28.40;;
17953;SDS011;9102;53.548;9.926;2022-11-18T07:16:16;61.50;;;28.90;;
17953;SDS011;9102;53.548;9.926;2022-11-18T07:18:46;59.33;;;27.58;;
17953;SDS011;9102;53.548;9.926;2022-11-18T07:21:15;61.05;;;28.58;;
17953;SDS011;9102;53.548;9.926;2022-11-18T07:23:42;59.03;;;26.42;;
17953;SDS011;9102;53.548;9.926;2022-11-18T07:26:09;58.87;;;28.27;;
17953;SDS011;9102;53.548;9.926;2022-11-18T07:28:37;63.65;;;29.80;;
17953;SDS011;9102;53.548;9.926;2022-11-18T07:31:04;60.75;;;28.48;;
17953;SDS011;9102;53.548;9.926;2022-11-18T07:33:32;60.93;;;30.27;;
17953;SDS011;9102;53.548;9.926;2022-11-18T07:36:01;62.87;;;28.73;;
17953;SDS011;9102;53.548;9.926;2022-11-18T07:38:29;55.27;;;27.10;;
17953;SDS011;9102;53.548;9.926;2022-11-18T07:41:01;56.30;;;27.77;;
17953;SDS011;9102;53.548;9.926;2022-11-18T07:43:29;58.83;;;28.90;;
17953;SDS011;9102;53.548;9.926;2022-11-18T07:45:57;57.27;;;26.93;;
17953;SDS011;9102;53.548;9.926;2022-11-18T07:48:24;57.35;;;27.58;;
17953;SDS011;9102;53.548;9.926;2022-11-18T07:50:50;55.25;;;27.90;;
17953;SDS011;9102;53.548;9.926;2022-11-18T07:53:19;55.92;;;27.58;;
17953;SDS011;9102;53.548;9.926;2022-11-18T07:55:46;52.67;;;26.83;;
17953;SDS011;9102;53.548;9.926;2022-11-18T07:58:12;49.80;;;25.05;;
17953;SDS011;9102;53.548;9.926;2022-11-18T08:00:39;48.92;;;25.00;;
17953;SDS011;9102;53.548;9.926;2022-11-18T08:03:06;50.67;;;25.70;;
17953;SDS011;9102;53.548;9.926;2022-11-18T08:05:33;48.58;;;24.38;;
17953;SDS011;9102;53.548;9.926;2022-11-18T08:08:00;50.08;;;24.65;;
17953;SDS011;9102;53.548;9.926;2022-11-18T08:10:28;49.88;;;25.45;;
17953;SDS011;9102;53.548;9.926;2022-11-18T08:12:55;43.57;;;23.33;;
17953;SDS011;9102;53.548;9.926;2022-11-18T08:15:22;42.58;;;22.52;;
17953;SDS011;9102;53.548;9.926;2022-11-18T08:17:49;40.30;;;22.48;;
17953;SDS011;9102;53.548;9.926;2022-11-18T08:20:16;39.47;;;21.07;;
17953;SDS011;9102;53.548;9.926;2022-11-18T08:22:43;38.03;;;20.35;;
17953;SDS011;9102;53.548;9.926;2022-11-18T08:25:09;38.13;;;21.38;;
17953;SDS011;9102;53.548;9.926;2022-11-18T08:27:38;40.47;;;21.90;;
17953;SDS011;9102;53.548;9.926;2022-11-18T08:30:07;36.50;;;20.98;;
17953;SDS011;9102;53.548;9.926;2022-11-18T08:32:35;38.42;;;20.60;;
17953;SDS011;9102;53.548;9.926;2022-11-18T08:35:02;35.33;;;20.58;;
17953;SDS011;9102;53.548;9.926;2022-11-18T08:37:29;33.47;;;19.90;;
17953;SDS011;9102;53.548;9.926;2022-11-18T08:43:22;35.72;;;18.88;;
17953;SDS011;9102;53.548;9.926;2022-11-18T08:45:49;32.75;;;18.40;;
17953;SDS011;9102;53.548;9.926;2022-11-18T08:48:16;32.43;;;17.70;;
17953;SDS011;9102;53.548;9.926;2022-11-18T08:50:43;29.33;;;17.00;;
17953;SDS011;9102;53.548;9.926;2022-11-18T08:53:09;30.10;;;18.30;;
17953;SDS011;9102;53.548;9.926;2022-11-18T08:55:36;28.45;;;16.90;;
17953;SDS011;9102;53.548;9.926;2022-11-18T08:58:03;28.30;;;16.58;;
17953;SDS011;9102;53.548;9.926;2022-11-18T09:00:31;32.00;;;17.52;;
17953;SDS011;9102;53.548;9.926;2022-11-18T09:02:58;28.77;;;17.00;;
17953;SDS011;9102;53.548;9.926;2022-11-18T09:05:25;34.08;;;17.58;;
17953;SDS011;9102;53.548;9.926;2022-11-18T09:07:52;28.70;;;16.48;;
17953;SDS011;9102;53.548;9.926;2022-11-18T09:10:19;27.20;;;16.55;;
17953;SDS011;9102;53.548;9.926;2022-11-18T09:12:46;31.23;;;17.38;;
17953;SDS011;9102;53.548;9.926;2022-11-18T09:15:13;30.77;;;16.60;;
17953;SDS011;9102;53.548;9.926;2022-11-18T09:17:42;28.50;;;16.95;;
17953;SDS011;9102;53.548;9.926;2022-11-18T09:20:09;29.17;;;17.17;;
17953;SDS011;9102;53.548;9.926;2022-11-18T09:22:36;26.40;;;15.43;;
17953;SDS011;9102;53.548;9.926;2022-11-18T09:25:04;28.25;;;16.60;;
17953;SDS011;9102;53.548;9.926;2022-11-18T09:27:31;31.52;;;16.40;;
17953;SDS011;9102;53.548;9.926;2022-11-18T09:29:58;27.05;;;16.02;;
17953;SDS011;9102;53.548;9.926;2022-11-18T09:32:25;27.65;;;16.13;;
17953;SDS011;9102;53.548;9.926;2022-11-18T09:34:53;28.13;;;16.63;;
17953;SDS011;9102;53.548;9.926;2022-11-18T09:37:20;29.08;;;16.75;;
17953;SDS011;9102;53.548;9.926;2022-11-18T09:39:47;26.88;;;15.73;;
17953;SDS011;9102;53.548;9.926;2022-11-18T09:42:27;28.55;;;15.98;;
17953;SDS011;9102;53.548;9.926;2022-11-18T09:45:13;27.45;;;15.77;;
17953;SDS011;9102;53.548;9.926;2022-11-18T09:47:45;27.02;;;14.90;;
17953;SDS011;9102;53.548;9.926;2022-11-18T09:50:14;25.13;;;14.63;;
17953;SDS011;9102;53.548;9.926;2022-11-18T09:52:43;25.20;;;14.85;;
17953;SDS011;9102;53.548;9.926;2022-11-18T09:55:13;32.78;;;15.30;;
17953;SDS011;9102;53.548;9.926;2022-11-18T09:57:43;25.23;;;15.15;;
17953;SDS011;9102;53.548;9.926;2022-11-18T10:00:15;23.25;;;14.18;;
17953;SDS011;9102;53.548;9.926;2022-11-18T10:02:48;24.52;;;13.95;;
17953;SDS011;9102;53.548;9.926;2022-11-18T10:05:22;23.27;;;14.27;;
17953;SDS011;9102;53.548;9.926;2022-11-18T10:07:54;22.20;;;13.85;;
17953;SDS011;9102;53.548;9.926;2022-11-18T10:10:33;24.77;;;14.60;;
17953;SDS011;9102;53.548;9.926;2022-11-18T10:13:11;22.88;;;13.15;;
17953;SDS011;9102;53.548;9.926;2022-11-18T10:15:50;23.08;;;13.68;;
17953;SDS011;9102;53.548;9.926;2022-11-18T10:18:26;21.80;;;13.38;;
17953;SDS011;9102;53.548;9.926;2022-11-18T10:21:00;23.55;;;13.68;;
17953;SDS011;9102;53.548;9.926;2022-11-18T10:23:39;22.40;;;12.82;;
17953;SDS011;9102;53.548;9.926;2022-11-18T10:26:11;20.67;;;12.98;;
17953;SDS011;9102;53.548;9.926;2022-11-18T10:28:39;23.13;;;14.23;;
17953;SDS011;9102;53.548;9.926;2022-11-18T10:31:07;23.45;;;13.07;;
17953;SDS011;9102;53.548;9.926;2022-11-18T10:33:35;20.15;;;12.55;;
17953;SDS011;9102;53.548;9.926;2022-11-18T10:36:11;18.67;;;11.40;;
17953;SDS011;9102;53.548;9.926;2022-11-18T10:39:04;19.42;;;12.38;;
17953;SDS011;9102;53.548;9.926;2022-11-18T10:41:37;18.33;;;11.68;;
17953;SDS011;9102;53.548;9.926;2022-11-18T10:44:24;16.83;;;11.18;;
17953;SDS011;9102;53.548;9.926;2022-11-18T10:49:58;19.50;;;11.30;;
17953;SDS011;9102;53.548;9.926;2022-11-18T10:52:29;15.50;;;10.32;;
17953;SDS011;9102;53.548;9.926;2022-11-18T10:55:17;17.83;;;10.70;;
17953;SDS011;9102;53.548;9.926;2022-11-18T10:57:47;16.95;;;10.32;;
17953;SDS011;9102;53.548;9.926;2022-11-18T11:03:19;16.55;;;10.43;;
17953;SDS011;9102;53.548;9.926;2022-11-18T11:06:03;16.00;;;10.05;;
17953;SDS011;9102;53.548;9.926;2022-11-18T11:08:47;13.02;;;8.65;;
17953;SDS011;9102;53.548;9.926;2022-11-18T11:11:17;14.50;;;9.15;;
17953;SDS011;9102;53.548;9.926;2022-11-18T11:13:50;15.05;;;8.95;;
17953;SDS011;9102;53.548;9.926;2022-11-18T11:16:19;15.02;;;8.52;;
17953;SDS011;9102;53.548;9.926;2022-11-18T11:18:47;13.90;;;8.50;;
17953;SDS011;9102;53.548;9.926;2022-11-18T11:21:19;13.55;;;7.95;;
17953;SDS011;9102;53.548;9.926;2022-11-18T11:23:50;13.45;;;8.40;;
17953;SDS011;9102;53.548;9.926;2022-11-18T11:26:18;15.48;;;8.10;;
17953;SDS011;9102;53.548;9.926;2022-11-18T11:28:52;13.82;;;8.43;;
17953;SDS011;9102;53.548;9.926;2022-11-18T11:31:24;17.58;;;8.30;;
17953;SDS011;9102;53.548;9.926;2022-11-18T11:34:00;14.13;;;8.43;;
17953;SDS011;9102;53.548;9.926;2022-11-18T11:36:38;15.07;;;8.10;;
17953;SDS011;9102;53.548;9.926;2022-11-18T11:39:38;13.38;;;8.13;;
17953;SDS011;9102;53.548;9.926;2022-11-18T11:42:14;11.93;;;7.63;;
17953;SDS011;9102;53.548;9.926;2022-11-18T11:44:54;11.40;;;7.28;;
17953;SDS011;9102;53.548;9.926;2022-11-18T11:47:31;15.60;;;8.30;;
17953;SDS011;9102;53.548;9.926;2022-11-18T11:50:15;14.25;;;8.05;;
17953;SDS011;9102;53.548;9.926;2022-11-18T11:52:49;14.75;;;7.88;;
17953;SDS011;9102;53.548;9.926;2022-11-18T11:55:31;17.23;;;8.82;;
17953;SDS011;9102;53.548;9.926;2022-11-18T11:58:15;11.60;;;7.03;;
17953;SDS011;9102;53.548;9.926;2022-11-18T12:00:48;13.95;;;7.32;;
17953;SDS011;9102;53.548;9.926;2022-11-18T12:03:32;13.20;;;7.22;;
17953;SDS011;9102;53.548;9.926;2022-11-18T12:06:09;15.43;;;7.63;;
17953;SDS011;9102;53.548;9.926;2022-11-18T12:08:36;13.27;;;7.72;;
17953;SDS011;9102;53.548;9.926;2022-11-18T12:11:11;11.38;;;7.30;;
17953;SDS011;9102;53.548;9.926;2022-11-18T12:13:44;17.42;;;8.73;;
17953;SDS011;9102;53.548;9.926;2022-11-18T12:16:20;17.10;;;7.45;;
17953;SDS011;9102;53.548;9.926;2022-11-18T12:18:54;13.05;;;7.22;;
17953;SDS011;9102;53.548;9.926;2022-11-18T12:24:28;15.50;;;7.90;;
17953;SDS011;9102;53.548;9.926;2022-11-18T12:26:59;17.02;;;8.73;;
17953;SDS011;9102;53.548;9.926;2022-11-18T12:29:28;14.45;;;7.60;;
17953;SDS011;9102;53.548;9.926;2022-11-18T12:32:23;15.23;;;9.88;;
17953;SDS011;9102;53.548;9.926;2022-11-18T12:34:54;13.40;;;7.75;;
17953;SDS011;9102;53.548;9.926;2022-11-18T12:37:38;18.25;;;8.18;;
17953;SDS011;9102;53.548;9.926;2022-11-18T12:40:33;11.75;;;7.15;;
17953;SDS011;9102;53.548;9.926;2022-11-18T12:43:08;15.68;;;8.10;;
17953;SDS011;9102;53.548;9.926;2022-11-18T12:46:09;13.70;;;7.28;;
17953;SDS011;9102;53.548;9.926;2022-11-18T12:48:56;12.43;;;6.88;;
17953;SDS011;9102;53.548;9.926;2022-11-18T12:54:15;14.05;;;7.38;;
17953;SDS011;9102;53.548;9.926;2022-11-18T12:56:53;14.52;;;7.38;;
17953;SDS011;9102;53.548;9.926;2022-11-18T12:59:29;15.02;;;6.85;;
17953;SDS011;9102;53.548;9.926;2022-11-18T13:02:01;14.18;;;6.72;;
17953;SDS011;9102;53.548;9.926;2022-11-18T13:04:43;13.85;;;6.65;;
17953;SDS011;9102;53.548;9.926;2022-11-18T13:07:11;16.60;;;6.88;;
17953;SDS011;9102;53.548;9.926;2022-11-18T13:09:59;14.68;;;7.88;;
17953;SDS011;9102;53.548;9.926;2022-11-18T13:12:28;14.07;;;7.13;;
17953;SDS011;9102;53.548;9.926;2022-11-18T13:14:57;14.48;;;7.20;;
17953;SDS011;9102;53.548;9.926;2022-11-18T13:17:44;13.20;;;6.93;;
17953;SDS011;9102;53.548;9.926;2022-11-18T13:20:20;14.02;;;6.90;;
17953;SDS011;9102;53.548;9.926;2022-11-18T13:22:49;13.68;;;6.90;;
17953;SDS011;9102;53.548;9.926;2022-11-18T13:25:33;11.40;;;6.60;;
17953;SDS011;9102;53.548;9.926;2022-11-18T13:28:02;11.55;;;6.82;;
17953;SDS011;9102;53.548;9.926;2022-11-18T13:30:41;13.32;;;6.70;;
17953;SDS011;9102;53.548;9.926;2022-11-18T13:33:14;10.73;;;6.05;;
17953;SDS011;9102;53.548;9.926;2022-11-18T13:35:41;13.00;;;6.57;;
17953;SDS011;9102;53.548;9.926;2022-11-18T13:38:15;11.75;;;5.88;;
17953;SDS011;9102;53.548;9.926;2022-11-18T13:40:46;11.30;;;6.00;;
17953;SDS011;9102;53.548;9.926;2022-11-18T13:43:28;13.02;;;6.70;;
17953;SDS011;9102;53.548;9.926;2022-11-18T13:45:57;13.70;;;6.65;;
17953;SDS011;9102;53.548;9.926;2022-11-18T13:48:26;10.82;;;5.97;;
17953;SDS011;9102;53.548;9.926;2022-11-18T13:50:54;11.95;;;6.30;;
17953;SDS011;9102;53.548;9.926;2022-11-18T13:53:25;14.88;;;6.07;;
17953;SDS011;9102;53.548;9.926;2022-11-18T13:55:56;11.48;;;5.88;;
17953;SDS011;9102;53.548;9.926;2022-11-18T13:58:36;8.65;;;4.60;;
17953;SDS011;9102;53.548;9.926;2022-11-18T14:01:11;9.35;;;5.35;;
17953;SDS011;9102;53.548;9.926;2022-11-18T14:03:46;11.05;;;4.88;;
17953;SDS011;9102;53.548;9.926;2022-11-18T14:06:25;7.63;;;4.57;;
17953;SDS011;9102;53.548;9.926;2022-11-18T14:09:03;12.88;;;4.75;;
17953;SDS011;9102;53.548;9.926;2022-11-18T14:11:35;8.32;;;4.60;;
17953;SDS011;9102;53.548;9.926;2022-11-18T14:14:03;9.15;;;4.43;;
17953;SDS011;9102;53.548;9.926;2022-11-18T14:16:33;11.18;;;4.78;;
17953;SDS011;9102;53.548;9.926;2022-11-18T14:19:01;7.00;;;4.20;;
17953;SDS011;9102;53.548;9.926;2022-11-18T14:21:28;8.45;;;4.35;;
17953;SDS011;9102;53.548;9.926;2022-11-18T14:23:57;9.05;;;4.80;;
17953;SDS011;9102;53.548;9.926;2022-11-18T14:26:25;9.30;;;5.32;;
17953;SDS011;9102;53.548;9.926;2022-11-18T14:28:54;6.60;;;4.03;;
17953;SDS011;9102;53.548;9.926;2022-11-18T14:31:23;6.93;;;4.07;;
17953;SDS011;9102;53.548;9.926;2022-11-18T14:34:10;6.27;;;3.70;;
17953;SDS011;9102;53.548;9.926;2022-11-18T14:36:42;5.68;;;3.72;;
17953;SDS011;9102;53.548;9.926;2022-11-18T14:39:22;12.63;;;4.45;;
17953;SDS011;9102;53.548;9.926;2022-11-18T14:41:51;9.73;;;4.07;;
17953;SDS011;9102;53.548;9.926;2022-11-18T14:44:18;8.57;;;3.67;;
17953;SDS011;9102;53.548;9.926;2022-11-18T14:46:47;6.57;;;3.78;;
17953;SDS011;9102;53.548;9.926;2022-11-18T14:49:19;8.50;;;4.10;;
17953;SDS011;9102;53.548;9.926;2022-11-18T14:51:48;8.98;;;3.90;;
17953;SDS011;9102;53.548;9.926;2022-11-18T14:54:15;10.75;;;4.70;;
17953;SDS011;9102;53.548;9.926;2022-11-18T14:56:43;9.48;;;4.10;;
17953;SDS011;9102;53.548;9.926;2022-11-18T14:59:12;6.75;;;4.00;;
17953;SDS011;9102;53.548;9.926;2022-11-18T15:01:40;8.40;;;3.75;;
17953;SDS011;9102;53.548;9.926;2022-11-18T15:04:08;7.35;;;4.30;;
17953;SDS011;9102;53.548;9.926;2022-11-18T15:06:37;7.18;;;3.92;;
17953;SDS011;9102;53.548;9.926;2022-11-18T15:09:05;7.78;;;4.15;;
17953;SDS011;9102;53.548;9.926;2022-11-18T15:11:32;6.40;;;3.80;;
17953;SDS011;9102;53.548;9.926;2022-11-18T15:13:59;10.15;;;3.78;;
17953;SDS011;9102;53.548;9.926;2022-11-18T15:16:27;8.38;;;3.70;;
17953;SDS011;9102;53.548;9.926;2022-11-18T15:18:56;10.77;;;4.25;;
17953;SDS011;9102;53.548;9.926;2022-11-18T15:21:24;8.35;;;4.07;;